Men’s Results 1993-2010

Men’s IHLC Title Game Results, 1993-2010
Results listed as follows – game number, winner, score, loser, date, event, location.

🇧🇾 BELARUS – 3rd reign, 1 win
1492. 🇧🇾 BLR 4-3 SUI 🇨🇭 – 12/18/2010 – ARC – Herisau 🇨🇭

🇨🇭 SWITZERLAND – 12th reign, 1 win
1491. 🇨🇭 SUI 3-0 DEN 🇩🇰 – 12/17/2010 – ARC – Herisau 🇨🇭

🇩🇰 DENMARK – 1st reign, 2 wins
1490. 🇩🇰 DEN 3-2 SLO 🇸🇮 (SO) – 11/13/2010 – PC – Gomel 🇧🇾
1489. 🇩🇰 DEN 3-2 NOR 🇳🇴 (SO) – 11/12/2010 – PC – Gomel 🇧🇾

🇳🇴 NORWAY – 3rd reign, 2 wins
1488. 🇳🇴 NOR 3-1 SLO 🇸🇮 – 11/11/2010 – PC – Gomel 🇧🇾
1487. 🇳🇴 NOR 3-2 SUI 🇨🇭 – 05/17/2010 – WC – Mannheim 🇩🇪

🇨🇭 SWITZERLAND – 11th reign, 2 wins
1486. 🇨🇭 SUI 3-2 CZE 🇨🇿 – 05/15/2010 – WC – Mannheim 🇩🇪
1485. 🇨🇭 SUI 4-1 CAN 🇨🇦 – 05/12/2010 – WC – Mannheim 🇩🇪

🇨🇦 CANADA – 55th reign, 5 wins
1484. 🇨🇦 CAN 6-1 LAT 🇱🇻 – 05/10/2010 – WC – Mannheim 🇩🇪
1483. 🇨🇦 CAN 5-1 ITA 🇮🇹 – 05/08/2010 – WC – Mannheim 🇩🇪
1482. 🇨🇦 CAN 4-1 GER 🇩🇪 – 05/04/2010 – EX – Hamburg 🇩🇪
1481. 🇨🇦 CAN 3-2 USA 🇺🇸 (OT) – 02/28/2010 – OG – Vancouver 🇨🇦 🏅
1480. 🇨🇦 CAN 3-2 SVK 🇸🇰 – 02/26/2010 – OG – Vancouver 🇨🇦

🇸🇰 SLOVAKIA – 9th reign, 1 win
1479. 🇸🇰 SVK 4-3 SWE 🇸🇪 – 02/24/2010 – OG – Vancouver 🇨🇦

🇸🇪 SWEDEN – 67th reign, 1 win
1478. 🇸🇪 SWE 3-0 FIN 🇫🇮 – 02/21/2010 – OG – Vancouver 🇨🇦

🇫🇮 FINLAND – 38th reign, 4 wins
1477. 🇫🇮 FIN 5-0 GER 🇩🇪 – 02/19/2010 – OG – Vancouver 🇨🇦
1476. 🇫🇮 FIN 5-1 BLR 🇧🇾 – 02/17/2010 – OG – Vancouver 🇨🇦

1475. 🇫🇮 FIN 4-3 SWE 🇸🇪 (SO) – 12/20/2009 – COC – Moscow 🇷🇺
1474. 🇫🇮 FIN 3-2 RUS 🇷🇺 – 12/19/2009 – COC – Moscow 🇷🇺

🇷🇺 RUSSIA – 57th reign, 3 wins
1473. 🇷🇺 RUS 4-3 SWE 🇸🇪 – 12/17/2009 – COC – Moscow 🇷🇺
1472. 🇷🇺 RUS 4-3 CZE 🇨🇿 (OT) – 11/08/2009 – KT – Helsinki 🇫🇮
1471. 🇷🇺 RUS 4-1 SWE 🇸🇪 – 11/07/2009 – KT – Helsinki 🇫🇮

🇸🇪 SWEDEN – 66th reign, 1 win
1470. 🇸🇪 SWE 4-3 CZE 🇨🇿 – 11/05/2009 – KT – Jönköping 🇸🇪

🇨🇿 CZECHIA – 64th reign, 2 wins
1469. 🇨🇿 CZE 3-2 RUS 🇷🇺 (SO) – 09/06/2009 – CHG – Karlovy Vary 🇨🇿
1468. 🇨🇿 CZE 5-2 SWE 🇸🇪 – 09/05/2009 – CHG – Karlovy Vary 🇨🇿

🇸🇪 SWEDEN – 65th reign, 1 win
1467. 🇸🇪 SWE 4-3 RUS 🇷🇺 (SO) – 09/03/2009 – CHG – Podolsk 🇷🇺

🇷🇺 RUSSIA – 56th reign, 7 wins
1466. 🇷🇺 RUS 2-1 CAN 🇨🇦 – 05/10/2009 – WC – Bern 🇨🇭 🏅
1465. 🇷🇺 RUS 3-2 USA 🇺🇸 – 05/08/2009 – WC – Bern 🇨🇭
1464. 🇷🇺 RUS 4-3 BLR 🇧🇾 – 05/06/2009 – WC – Bern 🇨🇭
1463. 🇷🇺 RUS 6-1 LAT 🇱🇻 – 05/03/2009 – WC – Bern 🇨🇭
1462. 🇷🇺 RUS 4-1 USA 🇺🇸 – 05/02/2009 – WC – Bern 🇨🇭
1461. 🇷🇺 RUS 6-5 SWE 🇸🇪 (OT) – 04/30/2009 – WC – Bern 🇨🇭
1460. 🇷🇺 RUS 4-2 SUI 🇨🇭 – 04/28/2009 – WC – Bern 🇨🇭

🇨🇭 SWITZERLAND – 10th reign, 6 wins
1459. 🇨🇭 SUI 3-2 GER 🇩🇪 (OT) – 04/26/2009 – WC – Bern 🇨🇭
1458. 🇨🇭 SUI 1-0 FRA 🇫🇷 – 04/24/2009 – WC – Bern 🇨🇭
1457. 🇨🇭 SUI 5-2 USA 🇺🇸 – 04/21/2009 – EX – Kloten 🇨🇭
1456. 🇨🇭 SUI 3-2 NOR 🇳🇴 – 04/16/2009 – EX – Oslo 🇳🇴
1455. 🇨🇭 SUI 5-1 NOR 🇳🇴 – 04/15/2009 – EX – Oslo 🇳🇴
1454. 🇨🇭 SUI 4-3 FIN 🇫🇮 – 04/11/2009 – EX – Kreuzlingen 🇨🇭

🇫🇮 FINLAND – 37th reign, 1 win
1453. 🇫🇮 FIN 3-0 SUI 🇨🇭 – 04/08/2009 – EX – Olten 🇨🇭

🇨🇭 SWITZERLAND – 9th reign, 1 win
1452. 🇨🇭 SUI 3-2 SWE 🇸🇪 – 04/02/2009 – EX – Malmö 🇸🇪

🇸🇪 SWEDEN – 64th reign, 4 wins
1451. 🇸🇪 SWE 4-3 SUI 🇨🇭 (SO)- 03/31/2009 – EX – Karlskrona 🇸🇪
1450. 🇸🇪 SWE 4-0 FIN 🇫🇮 – 02/08/2009 – LGG – Stockholm 🇸🇪
1449. 🇸🇪 SWE 6-4 CZE 🇨🇿 – 02/07/2009 – LGG – Stockholm 🇸🇪
1448. 🇸🇪 SWE 4-3 RUS 🇷🇺 – 02/05/2009 – LGG – Stockholm 🇸🇪

🇷🇺 RUSSIA – 55th reign, 16 wins
1447. 🇷🇺 RUS 6-2 SWE 🇸🇪 – 12/21/2008 – COC – Moscow 🇷🇺
1446. 🇷🇺 RUS 5-2 CZE 🇨🇿 – 12/20/2008 – COC – Moscow 🇷🇺
1445. 🇷🇺 RUS 4-1 FIN 🇫🇮 – 12/18/2008 – COC – Moscow 🇷🇺
1444. 🇷🇺 RUS 1-0 CZE 🇨🇿 (SO) – 11/09/2008 – KT – Helsinki 🇫🇮
1443. 🇷🇺 RUS 6-2 FIN 🇫🇮 – 11/08/2008 – KT – Helsinki 🇫🇮
1442. 🇷🇺 RUS 1-0 SWE 🇸🇪 – 11/06/2008 – KT – Moscow 🇷🇺
1441. 🇷🇺 RUS 5-4 CAN 🇨🇦 (OT) – 05/18/2008 – WC – Québec 🇨🇦 🏅
1440. 🇷🇺 RUS 4-0 FIN 🇫🇮 – 05/16/2008 – WC – Québec 🇨🇦
1439. 🇷🇺 RUS 6-0 SUI 🇨🇭 – 05/14/2008 – WC – Québec 🇨🇦
1438. 🇷🇺 RUS 5-3 SUI 🇨🇭 – 05/12/2008 – WC – Québec 🇨🇦
1437. 🇷🇺 RUS 3-2 SWE 🇸🇪 – 05/10/2008 – WC – Québec 🇨🇦
1436. 🇷🇺 RUS 4-3 BLR 🇧🇾 (SO) – 05/09/2008 – WC – Québec 🇨🇦
1435. 🇷🇺 RUS 4-1 DEN 🇩🇰 – 05/06/2008 – WC – Québec 🇨🇦
1434. 🇷🇺 RUS 5-4 CZE 🇨🇿 (OT) – 05/04/2008 – WC – Québec 🇨🇦
1433. 🇷🇺 RUS 7-1 ITA 🇮🇹 – 05/02/2008 – WC – Québec 🇨🇦
1432. 🇷🇺 RUS 4-1 CAN 🇨🇦 – 04/28/2008 – EX – Québec 🇨🇦

🇨🇦 CANADA – 54th reign, 5 wins
1431. 🇨🇦 CAN 3-2 FIN 🇫🇮 – 04/26/2008 – EX – Québec 🇨🇦
1430. 🇨🇦 CAN 4-2 FIN 🇫🇮 – 05/13/2007 – WC – Moscow 🇷🇺 🏅
1429. 🇨🇦 CAN 4-1 SWE 🇸🇪 – 05/12/2007 – WC – Moscow 🇷🇺
1428. 🇨🇦 CAN 5-1 SUI 🇨🇭 – 05/10/2007 – WC – Moscow 🇷🇺
1427. 🇨🇦 CAN 6-3 USA 🇺🇸 – 05/07/2007 – WC – Mytischi 🇷🇺

🇺🇸 UNITED STATES – 27th reign, 1 win
1426. 🇺🇸 USA 3-0 GER 🇩🇪 – 05/05/2007 – WC – Mytischi 🇷🇺

🇩🇪 GERMANY – 11th reign, 1 win
1425. 🇩🇪 GER 2-0 CZE 🇨🇿 – 05/03/2007 – WC – Mytischi 🇷🇺

🇨🇿 CZECHIA – 63rd reign, 1 win
1424. 🇨🇿 CZE 4-3 USA 🇺🇸 – 05/01/2007 – WC – Mytischi 🇷🇺

🇺🇸 UNITED STATES – 26th reign, 3 wins
1423. 🇺🇸 USA 5-1 BLR 🇧🇾 – 04/29/2007 – WC – Mytischi 🇷🇺
1422. 🇺🇸 USA 6-2 AUT 🇦🇹 – 04/27/2007 – WC – Mytischi 🇷🇺
1421. 🇺🇸 USA 5-3 SWE 🇸🇪 – 04/25/2007 – EX – Stockholm 🇸🇪

🇸🇪 SWEDEN – 63rd reign, 3 wins
1420. 🇸🇪 SWE 4-2 RUS 🇷🇺 – 04/21/2007 – EHT – Moscow 🇷🇺
1419. 🇸🇪 SWE 3-2 RUS 🇷🇺 – 04/19/2007 – EHT – Gävle 🇸🇪
1418. 🇸🇪 SWE 7-1 HUN 🇭🇺 – 03/30/2007 – EX – Debrecen 🇭🇺

🇭🇺 HUNGARY – 1st reign, 1 win
1417. 🇭🇺 HUN 2-1 SWE 🇸🇪 (OT) – 03/29/2007 – EX – Budapest 🇭🇺

🇸🇪 SWEDEN – 62nd reign, 2 wins
1416. 🇸🇪 SWE 1-0 FIN 🇫🇮 – 02/11/2007 – LGG – Stockholm 🇸🇪
1415. 🇸🇪 SWE 6-2 RUS 🇷🇺 – 02/10/2007 – LGG – Stockholm 🇸🇪

🇷🇺 RUSSIA – 54th reign, 1 win
1414. 🇷🇺 RUS 4-3 FIN 🇫🇮 (OT) – 02/08/2007 – LGG – Mytischi 🇷🇺

🇫🇮 FINLAND – 36th reign, 1 win
1413. 🇫🇮 FIN 2-1 SWE 🇸🇪 – 12/17/2006 – COC – Moscow 🇷🇺

🇸🇪 SWEDEN – 61st reign, 2 wins
1412. 🇸🇪 SWE 7-5 CZE 🇨🇿 – 12/16/2006 – COC – Moscow 🇷🇺
1411. 🇸🇪 SWE 1-0 RUS 🇷🇺 (SO) – 12/14/2006 – COC – Moscow 🇷🇺

🇷🇺 RUSSIA – 53rd reign, 6 wins
1410. 🇷🇺 RUS 3-2 CZE 🇨🇿 (SO) – 11/12/2006 – KT – Helsinki 🇫🇮
1409. 🇷🇺 RUS 5-4 SWE 🇸🇪 – 11/11/2006 – KT – Helsinki 🇫🇮
1408. 🇷🇺 RUS 3-2 FIN 🇫🇮 – 11/09/2006 – KT – Helsinki 🇫🇮
1407. 🇷🇺 RUS 4-3 CZE 🇨🇿 – 09/03/2006 – CPC – Liberec 🇨🇿
1406. 🇷🇺 RUS 4-3 FIN 🇫🇮 – 09/02/2006 – CPC – Liberec 🇨🇿
1405. 🇷🇺 RUS 4-3 SWE 🇸🇪 (SO)- 08/31/2006 – CPC – Linköping 🇸🇪

🇸🇪 SWEDEN – 60th reign, 2 wins
1404. 🇸🇪 SWE 4-0 CZE 🇨🇿 – 05/21/2006 – WC – Rīga 🇱🇻 🏅
1403. 🇸🇪 SWE 5-4 CAN 🇨🇦 – 05/20/2006 – WC – Rīga 🇱🇻

🇨🇦 CANADA – 53rd reign, 2 wins
1402. 🇨🇦 CAN 4-1 SVK 🇸🇰 – 05/17/2006 – WC – Rīga 🇱🇻
1401. 🇨🇦 CAN 4-2 FIN 🇫🇮 – 05/15/2006 – WC – Rīga 🇱🇻

🇫🇮 FINLAND – 35th reign, 5 wins + 1 tie
1400. 🇫🇮 FIN 3-0 NOR 🇳🇴 – 05/14/2006 – WC – Rīga 🇱🇻
1399. 🇫🇮 FIN 4-0 USA 🇺🇸 – 05/12/2006 – WC – Rīga 🇱🇻
1398. 🇫🇮 FIN 3-3 CZE 🇨🇿 – 05/09/2006 – WC – Rīga 🇱🇻
1397. 🇫🇮 FIN 5-0 LAT 🇱🇻 – 05/07/2006 – WC – Rīga 🇱🇻
1396. 🇫🇮 FIN 5-3 SLO 🇸🇮 – 05/05/2006 – WC – Rīga 🇱🇻
1395. 🇫🇮 FIN 2-0 SWE 🇸🇪 – 04/29/2006 – LGG – Stockholm 🇸🇪

🇸🇪 SWEDEN – 59th reign, 5 wins
1394. 🇸🇪 SWE 7-6 RUS 🇷🇺 – 04/28/2006 – LGG – Stockholm 🇸🇪
1393. 🇸🇪 SWE 3-0 CZE 🇨🇿 – 04/26/2006 – LGG – Stockholm 🇸🇪
1392. 🇸🇪 SWE 5-1 NOR 🇳🇴 – 04/06/2006 – EX – Oslo 🇳🇴
1391. 🇸🇪 SWE 3-2 FIN 🇫🇮 – 02/26/2006 – OG – Turin 🇮🇹 🏅
1390. 🇸🇪 SWE 7-3 CZE 🇨🇿 – 02/24/2006 – OG – Turin 🇮🇹

🇨🇿 CZECHIA – 62nd reign, 1 win
1389. 🇨🇿 CZE 3-1 SVK 🇸🇰 – 02/22/2006 – OG – Turin 🇮🇹

🇸🇰 SLOVAKIA – 8th reign, 5 wins
1388. 🇸🇰 SVK 3-0 SWE 🇸🇪 – 02/21/2006 – OG – Turin 🇮🇹
1387. 🇸🇰 SVK 2-1 KAZ 🇰🇿 – 02/19/2006 – OG – Turin 🇮🇹
1386. 🇸🇰 SVK 2-1 USA 🇺🇸 – 02/18/2006 – OG – Turin 🇮🇹
1385. 🇸🇰 SVK 6-3 LAT 🇱🇻 – 02/16/2006 – OG – Turin 🇮🇹
1384. 🇸🇰 SVK 5-3 RUS 🇷🇺 – 02/15/2006 – OG – Turin 🇮🇹

🇷🇺 RUSSIA – 52nd reign, 4 wins
1383. 🇷🇺 RUS 3-1 GER 🇩🇪 – 02/11/2006 – EX – Cologne 🇩🇪
1382. 🇷🇺 RUS 2-1 SUI 🇨🇭 – 02/08/2006 – EX – Lausanne 🇨🇭
1381. 🇷🇺 RUS 3-1 CZE 🇨🇿 – 12/18/2005 – RC – Moscow 🇷🇺
1380. 🇷🇺 RUS 2-0 FIN 🇫🇮 – 12/17/2005 – RC – Moscow 🇷🇺

🇫🇮 FINLAND – 34th reign, 1 win
1379. 🇫🇮 FIN 3-2 CZE 🇨🇿 (SO) – 12/15/2005 – RC – Prague 🇨🇿

🇨🇿 CZECHIA – 61st reign, 1 win
1378. 🇨🇿 CZE 4-1 FIN 🇫🇮 – 12/14/2005 – EX – České Budějovice 🇨🇿

🇫🇮 FINLAND – 33rd reign, 1 win
1377. 🇫🇮 FIN 2-1 SWE 🇸🇪 – 11/14/2005 – KT – Helsinki 🇫🇮

🇸🇪 SWEDEN – 58th reign, 4 wins
1376. 🇸🇪 SWE 3-2 RUS 🇷🇺 (OT) – 11/12/2005 – KT – Helsinki 🇫🇮
1375. 🇸🇪 SWE 6-3 CZE 🇨🇿 – 11/10/2005 – KT – Jönköping 🇸🇪
1374. 🇸🇪 SWE 2-0 FIN 🇫🇮 – 09/04/2005 – CPC – Liberec 🇨🇿
1373. 🇸🇪 SWE 5-3 CZE 🇨🇿 – 09/03/2005 – CPC – Liberec 🇨🇿

🇨🇿 CZECHIA – 60th reign, 4 wins
1372. 🇨🇿 CZE 2-1 FIN 🇫🇮 (SO) – 09/01/2005 – CPC – Liberec 🇨🇿
1371. 🇨🇿 CZE 3-0 CAN 🇨🇦 – 05/15/2005 – WC – Vienna 🇦🇹 🏅
1370. 🇨🇿 CZE 3-2 SWE 🇸🇪 (OT) – 05/14/2005 – WC – Vienna 🇦🇹
1369. 🇨🇿 CZE 3-2 USA 🇺🇸 (SO) – 05/12/2005 – WC – Vienna 🇦🇹

🇺🇸 UNITED STATES – 25th reign, 1 win + 1 tie
1368. 🇺🇸 USA 1-1 UKR 🇺🇦 – 05/09/2005 – WC – Innsbruck 🇦🇹
1367. 🇺🇸 USA 5-1 SWE 🇸🇪 – 05/08/2005 – WC – Innsbruck 🇦🇹

🇸🇪 SWEDEN – 57th reign, 1 win
1366. 🇸🇪 SWE 5-4 CAN 🇨🇦 – 05/07/2005 – WC – Innsbruck 🇦🇹

🇨🇦 CANADA – 52nd reign, 1 win
1365. 🇨🇦 CAN 3-1 USA 🇺🇸 – 05/05/2005 – WC – Innsbruck 🇦🇹

🇺🇸 UNITED STATES – 24th reign, 5 wins
1364. 🇺🇸 USA 3-1 LAT 🇱🇻 – 05/03/2005 – WC – Innsbruck 🇦🇹
1363. 🇺🇸 USA 7-0 SLO 🇸🇮 – 05/01/2005 – WC – Innsbruck 🇦🇹
1362. 🇺🇸 USA 3-1 GER 🇩🇪 – 04/28/2005 – EX – Rosenheim 🇩🇪
1361. 🇺🇸 USA 3-2 GER 🇩🇪 – 04/26/2005 – EX – Munich 🇩🇪
1360. 🇺🇸 USA 5-4 CAN 🇨🇦 – 04/22/2005 – EX – Québec 🇨🇦

🇨🇦 CANADA – 51st reign, 1 win
1359. 🇨🇦 CAN 3-1 USA 🇺🇸 – 04/20/2005 – EX – Halifax 🇨🇦

🇺🇸 UNITED STATES – 23rd reign, 1 win
1358. 🇺🇸 USA 4-0 SVK 🇸🇰 – 11/14/2004 – DC – Hanover 🇩🇪

🇸🇰 SLOVAKIA – 7th reign, 2 wins
1357. 🇸🇰 SVK 6-2 GER 🇩🇪 – 11/13/2004 – DC – Hanover 🇩🇪
1356. 🇸🇰 SVK 5-3 CAN 🇨🇦 – 11/12/2004 – DC – Hanover 🇩🇪

🇨🇦 CANADA – 50th reign, 9 wins + 1 tie
1355. 🇨🇦 CAN 5-2 USA 🇺🇸 – 11/11/2004 – DC – Hanover 🇩🇪
1354. 🇨🇦 CAN 3-2 SUI 🇨🇭 (SO) – 11/09/2004 – SWC – Kreuzlingen 🇨🇭
1353. 🇨🇦 CAN 3-2 FIN 🇫🇮 – 09/14/2004 – WCH – Toronto 🇨🇦 🏅
1352. 🇨🇦 CAN 4-3 CZE 🇨🇿 (OT) – 09/11/2004 – WCH – Toronto 🇨🇦
1351. 🇨🇦 CAN 5-0 SVK 🇸🇰 – 09/08/2004 – WCH – Toronto 🇨🇦
1350. 🇨🇦 CAN 3-1 RUS 🇷🇺 – 09/04/2004 – WCH – Toronto 🇨🇦
1349. 🇨🇦 CAN 5-1 SVK 🇸🇰 – 09/01/2004 – WCH – Montréal 🇨🇦
1348. 🇨🇦 CAN 2-1 USA 🇺🇸 – 08/31/2004 – WCH – Montréal 🇨🇦
1347. 🇨🇦 CAN 2-2 SVK 🇸🇰 – 08/28/2004 – EX – Ottawa 🇨🇦
1346. 🇨🇦 CAN 3-1 USA 🇺🇸 – 08/25/2004 – EX – Ottawa 🇨🇦

🇺🇸 UNITED STATES – 22nd reign, 1 win
1345. 🇺🇸 USA 3-1 CAN 🇨🇦 – 08/23/2004 – EX – Columbus 🇺🇸

🇨🇦 CANADA – 49th reign, 1 win
1344. 🇨🇦 CAN 5-3 SWE 🇸🇪 – 05/09/2004 – WC – Prague 🇨🇿 🏅

🇸🇪 SWEDEN – 56th reign, 1 win
1343. 🇸🇪 SWE 3-2 USA 🇺🇸 – 05/08/2004 – WC – Prague 🇨🇿

🇺🇸 UNITED STATES – 21st reign, 1 win
1342. 🇺🇸 USA 3-2 CZE 🇨🇿 (SO) – 05/05/2004 – WC – Prague 🇨🇿

🇨🇿 CZECHIA – 59th reign, 1 win
1341. 🇨🇿 CZE 6-2 CAN 🇨🇦 – 05/03/2004 – WC – Prague 🇨🇿

🇨🇦 CANADA – 48th reign, 3 wins
1340. 🇨🇦 CAN 6-1 GER 🇩🇪 – 05/02/2004 – WC – Prague 🇨🇿
1339. 🇨🇦 CAN 2-0 LAT 🇱🇻 – 04/30/2004 – WC – Prague 🇨🇿
1338. 🇨🇦 CAN 3-1 SUI 🇨🇭 – 04/28/2004 – WC – Prague 🇨🇿

🇨🇭 SWITZERLAND – 8th reign, 2 wins + 1 tie
1337. 🇨🇭 SUI 4-4 AUT 🇦🇹 – 04/27/2004 – WC – Prague 🇨🇿
1336. 🇨🇭 SUI 6-0 FRA 🇫🇷 – 04/25/2004 – WC – Prague 🇨🇿
1335. 🇨🇭 SUI 3-0 SVK 🇸🇰 – 04/21/2004 – EX – Bratislava 🇸🇰

🇸🇰 SLOVAKIA – 6th reign, 6 wins + 2 ties
1334. 🇸🇰 SVK 3-3 LAT 🇱🇻 – 04/15/2004 – EX – Rīga 🇱🇻
1333. 🇸🇰 SVK 2-0 LAT 🇱🇻 – 04/14/2004 – EX – Rīga 🇱🇻
1332. 🇸🇰 SVK 2-1 GER 🇩🇪 – 04/08/2004 – EX – Piešťany 🇸🇰
1331. 🇸🇰 SVK 3-1 GER 🇩🇪 – 04/07/2004 – EX – Nitra 🇸🇰
1330. 🇸🇰 SVK 2-1 POL 🇵🇱 – 04/02/2004 – EX – Poprad 🇸🇰
1329. 🇸🇰 SVK 6-3 POL 🇵🇱 – 04/01/2004 – EX – Poprad 🇸🇰
1328. 🇸🇰 SVK 1-1 GER 🇩🇪 – 02/08/2004 – SC – Basel 🇨🇭
1327. 🇸🇰 SVK 2-1 CAN 🇨🇦 – 02/07/2004 – SC – Basel 🇨🇭

🇨🇦 CANADA – 47th reign, 6 wins + 1 tie
1326. 🇨🇦 CAN 4-0 GER 🇩🇪 – 02/06/2004 – SC – Basel 🇨🇭
1325. 🇨🇦 CAN 5-4 HUN 🇭🇺 – 02/03/2004 – EX – Székesfehérvár 🇭🇺
1324. 🇨🇦 CAN 4-3 SVK 🇸🇰 – 12/20/2003 – LC – Piešťany 🇸🇰
1323. 🇨🇦 CAN 1-1 SUI 🇨🇭 – 12/19/2003 – LC – Piešťany 🇸🇰
1322. 🇨🇦 CAN 4-1 AUT 🇦🇹 – 12/18/2003 – LC – Piešťany 🇸🇰
1321. 🇨🇦 CAN 5-1 CZE 🇨🇿 – 12/16/2003 – EX – Pardubice 🇨🇿
1320. 🇨🇦 CAN 2-1 GER 🇩🇪 – 11/09/2003 – DC – Hanover 🇩🇪

🇩🇪 GERMANY – 10th reign, 1 win
1319. 🇩🇪 GER 4-1 SUI 🇨🇭 – 11/08/2003 – DC – Hanover 🇩🇪

🇨🇭 SWITZERLAND – 7th reign, 1 win
1318. 🇨🇭 SUI 5-3 CAN 🇨🇦 – 11/07/2003 – DC – Hanover 🇩🇪

🇨🇦 CANADA – 46th reign, 3 wins + 1 tie
1317. 🇨🇦 CAN 2-2 GER 🇩🇪 – 11/05/2003 – EX – Cologne 🇩🇪
1316. 🇨🇦 CAN 2-1 SUI 🇨🇭 – 11/04/2003 – EX – Zürich 🇨🇭
1315. 🇨🇦 CAN 3-2 SWE 🇸🇪 (OT) – 05/11/2003 – WC – Helsinki 🇫🇮 🏅
1314. 🇨🇦 CAN 8-4 CZE 🇨🇿 – 05/09/2003 – WC – Helsinki 🇫🇮

🇨🇿 CZECHIA – 58th reign, 4 wins + 1 tie
1313. 🇨🇿 CZE 3-0 RUS 🇷🇺 – 05/07/2003 – WC – Turku 🇫🇮
1312. 🇨🇿 CZE 3-3 SVK 🇸🇰 – 05/05/2003 – WC – Helsinki 🇫🇮
1311. 🇨🇿 CZE 4-0 GER 🇩🇪 – 05/04/2003 – WC – Helsinki 🇫🇮
1310. 🇨🇿 CZE 5-2 UKR 🇺🇦 – 05/02/2003 – WC – Helsinki 🇫🇮
1309. 🇨🇿 CZE 2-1 FIN 🇫🇮 – 04/30/2003 – WC – Turku 🇫🇮

🇫🇮 FINLAND – 32nd reign, 5 wins + 1 tie
1308. 🇫🇮 FIN 12-0 SLO 🇸🇮 – 04/28/2003 – WC – Tampere 🇫🇮
1307. 🇫🇮 FIN 5-1 AUT 🇦🇹 – 04/26/2003 – WC – Helsinki 🇫🇮
1306. 🇫🇮 FIN 4-2 USA 🇺🇸 – 04/23/2003 – EX – Turku 🇫🇮
1305. 🇫🇮 FIN 2-2 SWE 🇸🇪 – 04/20/2003 – EX – Stockholm 🇸🇪
1304. 🇫🇮 FIN 4-0 SWE 🇸🇪 – 04/19/2003 – EX – Tampere 🇫🇮
1303. 🇫🇮 FIN 2-1 LAT 🇱🇻 – 04/13/2003 – EX – Rīga 🇱🇻

🇱🇻 LATVIA – 1st reign, 1 win
1302. 🇱🇻 LAT 5-2 FIN 🇫🇮 – 04/12/2003 – EX – Rīga 🇱🇻

🇫🇮 FINLAND – 31st reign, 2 wins
1301. 🇫🇮 FIN 3-2 RUS 🇷🇺 – 04/06/2003 – EX – Moscow 🇷🇺
1300. 🇫🇮 FIN 4-0 RUS 🇷🇺 – 04/05/2003 – EX – Podolsk 🇷🇺

🇷🇺 RUSSIA – 51st reign, 3 wins
1299. 🇷🇺 RUS 3-2 CZE 🇨🇿 – 02/09/2003 – SHG – Stockholm 🇸🇪
1298. 🇷🇺 RUS 4-2 SWE 🇸🇪 – 02/08/2003 – SHG – Stockholm 🇸🇪
1297. 🇷🇺 RUS 3-2 FIN 🇫🇮 (OT) – 02/06/2003 – SHG – Stockholm 🇸🇪

🇫🇮 FINLAND – 30th reign, 1 win
1296. 🇫🇮 FIN 1-0 CZE 🇨🇿 (OT) – 02/04/2003 – SHG – Helsinki 🇫🇮

🇨🇿 CZECHIA – 57th reign, 1 win
1295. 🇨🇿 CZE 3-2 FIN 🇫🇮 – 12/21/2002 – BC – Moscow 🇷🇺

🇫🇮 FINLAND – 29th reign, 5 wins
1294. 🇫🇮 FIN 1-0 SWE 🇸🇪 – 12/19/2002 – BC – Moscow 🇷🇺
1293. 🇫🇮 FIN 3-1 RUS 🇷🇺 – 12/18/2002 – BC – Moscow 🇷🇺
1292. 🇫🇮 FIN 4-1 SVK 🇸🇰 – 12/16/2002 – BC – Espoo 🇫🇮
1291. 🇫🇮 FIN 5-3 SWE 🇸🇪 – 11/10/2002 – KT – Helsinki 🇫🇮
1290. 🇫🇮 FIN 2-0 CZE 🇨🇿 – 11/09/2002 – KT – Helsinki 🇫🇮

🇨🇿 CZECHIA – 56th reign, 2 wins
1289. 🇨🇿 CZE 5-2 SWE 🇸🇪 – 11/07/2002 – KT – Pardubice 🇨🇿
1288. 🇨🇿 CZE 4-3 SVK 🇸🇰 – 11/05/2002 – EX – Plzeň 🇨🇿

🇸🇰 SLOVAKIA – 5th reign, 1 win
1287. 🇸🇰 SVK 4-3 RUS 🇷🇺 – 05/11/2002 – WC – Gothenburg 🇸🇪 🏅

🇷🇺 RUSSIA – 50th reign, 2 wins
1286. 🇷🇺 RUS 3-2 FIN 🇫🇮 (SO) – 05/09/2002 – WC – Gothenburg 🇸🇪
1285. 🇷🇺 RUS 3-1 CZE 🇨🇿 – 05/07/2002 – WC – Jönköping 🇸🇪

🇨🇿 CZECHIA – 55th reign, 1 win
1284. 🇨🇿 CZE 5-1 CAN 🇨🇦 – 05/05/2002 – WC – Jönköping 🇸🇪

🇨🇦 CANADA – 45th reign, 8 wins
1283. 🇨🇦 CAN 3-2 SUI 🇨🇭 – 05/03/2002 – WC – Karlstad 🇸🇪
1282. 🇨🇦 CAN 3-1 GER 🇩🇪 – 05/02/2002 – WC – Karlstad 🇸🇪
1281. 🇨🇦 CAN 2-1 USA 🇺🇸 – 04/30/2002 – WC – Karlstad 🇸🇪
1280. 🇨🇦 CAN 5-0 ITA 🇮🇹 – 04/29/2002 – WC – Karlstad 🇸🇪
1279. 🇨🇦 CAN 4-1 LAT 🇱🇻 – 04/27/2002 – WC – Karlstad 🇸🇪
1278. 🇨🇦 CAN 4-3 SWE 🇸🇪 – 04/24/2002 – EX – Jönköping 🇸🇪
1277. 🇨🇦 CAN 5-2 USA 🇺🇸 – 02/24/2002 – OG – West Valley City 🇺🇸 🏅
1276. 🇨🇦 CAN 7-1 BLR 🇧🇾 – 02/22/2002 – OG – West Valley City 🇺🇸

🇧🇾 BELARUS – 2nd reign, 1 win
1275. 🇧🇾 BLR 4-3 SWE 🇸🇪 – 02/20/2002 – OG – West Valley City 🇺🇸

🇸🇪 SWEDEN – 55th reign, 2 wins
1274. 🇸🇪 SWE 7-1 GER 🇩🇪 – 02/18/2002 – OG – Provo 🇺🇸
1273. 🇸🇪 SWE 2-1 CZE 🇨🇿 – 02/17/2002 – OG – West Valley City 🇺🇸

🇨🇿 CZECHIA – 54th reign, 2 wins
1272. 🇨🇿 CZE 8-2 GER 🇩🇪 – 02/15/2002 – OG – Provo 🇺🇸
1271. 🇨🇿 CZE 4-0 RUS 🇷🇺 – 12/22/2001 – BC – Moscow 🇷🇺

🇷🇺 RUSSIA – 49th reign, 3 wins
1270. 🇷🇺 RUS 3-1 SWE 🇸🇪 – 12/20/2001 – BC – Moscow 🇷🇺
1269. 🇷🇺 RUS 3-2 FIN 🇫🇮 (SO) – 12/18/2001 – BC – Moscow 🇷🇺
1268. 🇷🇺 RUS 3-2 CZE 🇨🇿 – 11/11/2001 – SHG – Stockholm 🇸🇪

🇨🇿 CZECHIA – 53rd reign, 3 wins
1267. 🇨🇿 CZE 3-1 CAN 🇨🇦 – 11/09/2001 – SHG – Stockholm 🇸🇪
1266. 🇨🇿 CZE 2-1 SWE 🇸🇪 (OT) – 11/08/2001 – SHG – Stockholm 🇸🇪
1265. 🇨🇿 CZE 7-2 FIN 🇫🇮 – 11/06/2001 – SHG – Helsinki 🇫🇮

🇫🇮 FINLAND – 28th reign, 2 wins
1264. 🇫🇮 FIN 3-0 CZE 🇨🇿 – 09/09/2001 – CPC – Zlín 🇨🇿
1263. 🇫🇮 FIN 2-1 RUS 🇷🇺 – 09/08/2001 – CPC – Zlín 🇨🇿

🇷🇺 RUSSIA – 48th reign, 1 win
1262. 🇷🇺 RUS 5-4 CZE 🇨🇿 (SO) – 09/06/2001 – CPC – Zlín 🇨🇿

🇨🇿 CZECHIA – 52nd reign, 1 win + 1 tie
1261. 🇨🇿 CZE 2-2 POL 🇵🇱 – 09/04/2001 – EX – Oświęcim 🇵🇱
1260. 🇨🇿 CZE 3-2 FIN 🇫🇮 (OT) – 05/13/2001 – WC – Hanover 🇩🇪 🏅

🇫🇮 FINLAND – 27th reign, 3 wins
1259. 🇫🇮 FIN 3-1 USA 🇺🇸 – 05/12/2001 – WC – Hanover 🇩🇪
1258. 🇫🇮 FIN 4-1 GER 🇩🇪 – 05/10/2001 – WC – Cologne 🇩🇪
1257. 🇫🇮 FIN 5-4 SWE 🇸🇪 – 05/08/2001 – WC – Cologne 🇩🇪

🇸🇪 SWEDEN – 54th reign, 5 wins + 1 tie
1256. 🇸🇪 SWE 3-1 SVK 🇸🇰 – 05/05/2001 – WC – Cologne 🇩🇪
1255. 🇸🇪 SWE 11-0 AUT 🇦🇹 – 05/04/2001 – WC – Cologne 🇩🇪
1254. 🇸🇪 SWE 2-2 USA 🇺🇸 – 05/02/2001 – WC – Cologne 🇩🇪
1253. 🇸🇪 SWE 5-0 UKR 🇺🇦 – 05/01/2001 – WC – Cologne 🇩🇪
1252. 🇸🇪 SWE 5-2 LAT 🇱🇻 – 04/29/2001 – WC – Cologne 🇩🇪
1251. 🇸🇪 SWE 4-3 SVK 🇸🇰 – 04/26/2001 – EX – Gävle 🇸🇪

🇸🇰 SLOVAKIA – 4th reign, 3 wins
1250. 🇸🇰 SVK 2-1 LAT 🇱🇻 – 04/19/2001 – EX – Liptovský Mikuláš 🇸🇰
1249. 🇸🇰 SVK 3-0 LAT 🇱🇻 – 04/18/2001 – EX – Liptovský Mikuláš 🇸🇰
1248. 🇸🇰 SVK 8-4 CZE 🇨🇿 – 04/11/2001 – EX – Martin 🇸🇰

🇨🇿 CZECHIA – 51st reign, 2 wins
1247. 🇨🇿 CZE 3-1 SVK 🇸🇰 – 04/10/2001 – EX – Olomouc 🇨🇿
1246. 🇨🇿 CZE 5-3 SUI 🇨🇭 – 04/07/2001 – EX – Příbram 🇨🇿

🇨🇭 SWITZERLAND – 6th reign, 1 win
1245. 🇨🇭 SUI 4-2 CZE 🇨🇿 – 04/06/2001 – EX – Mladá Boleslav 🇨🇿

🇨🇿 CZECHIA – 50th reign, 1 win
1244. 🇨🇿 CZE 2-1 SWE 🇸🇪 – 02/10/2001 – SHG – Stockholm 🇸🇪

🇸🇪 SWEDEN – 53rd reign, 1 win
1243. 🇸🇪 SWE 2-1 RUS 🇷🇺 – 02/08/2001 – SHG – Stockholm 🇸🇪

🇷🇺 RUSSIA – 47th reign, 4 wins
1242. 🇷🇺 RUS 2-1 CZE 🇨🇿 – 02/06/2001 – SHG – Pardubice 🇨🇿
1241. 🇷🇺 RUS 1-0 SWE 🇸🇪 – 12/20/2000 – BC – Moscow 🇷🇺
1240. 🇷🇺 RUS 5-4 CZE 🇨🇿 (SO) – 12/18/2000 – BC – Moscow 🇷🇺
1239. 🇷🇺 RUS 2-1 FIN 🇫🇮 – 12/17/2000 – BC – Moscow 🇷🇺

🇫🇮 FINLAND – 26th reign, 1 win + 1 tie
1238. 🇫🇮 FIN 3-3 SWE 🇸🇪 – 12/15/2000 – EX – Helsinki 🇫🇮
1237. 🇫🇮 FIN 6-1 SWE 🇸🇪 – 11/12/2000 – KT – Helsinki 🇫🇮

🇸🇪 SWEDEN – 52nd reign, 2 wins
1236. 🇸🇪 SWE 2-0 RUS 🇷🇺 – 11/11/2000 – KT – Helsinki 🇫🇮
1235. 🇸🇪 SWE 4-1 CZE 🇨🇿 – 11/09/2000 – KT – Jönköping 🇸🇪

🇨🇿 CZECHIA – 49th reign, 1 win
1234. 🇨🇿 CZE 2-1 FIN 🇫🇮 (OT) – 09/03/2000 – CPC – Zlín 🇨🇿

🇫🇮 FINLAND – 25th reign, 1 win
1233. 🇫🇮 FIN 4-2 SWE 🇸🇪 – 09/01/2000 – CPC – Zlín 🇨🇿

🇸🇪 SWEDEN – 51st reign, 1 win
1232. 🇸🇪 SWE 3-2 CZE 🇨🇿 – 08/31/2000 – CPC – Zlín 🇨🇿

🇨🇿 CZECHIA – 48th reign, 5 wins
1231. 🇨🇿 CZE 6-1 SVK 🇸🇰 – 08/29/2000 – EX – Brno 🇨🇿
1230. 🇨🇿 CZE 5-3 SVK 🇸🇰 – 05/14/2000 – WC – Saint Petersburg 🇷🇺 🏅
1229. 🇨🇿 CZE 2-1 CAN 🇨🇦 – 05/12/2000 – WC – Saint Petersburg 🇷🇺
1228. 🇨🇿 CZE 3-1 LAT 🇱🇻 – 05/11/2000 – WC – Saint Petersburg 🇷🇺
1227. 🇨🇿 CZE 6-2 SVK 🇸🇰 – 05/08/2000 – WC – Saint Petersburg 🇷🇺

🇸🇰 SLOVAKIA – 3rd reign, 4 wins + 2 ties
1226. 🇸🇰 SVK 9-1 NOR 🇳🇴 – 05/06/2000 – WC – Saint Petersburg 🇷🇺
1225. 🇸🇰 SVK 2-2 FIN 🇫🇮 – 05/04/2000 – WC – Saint Petersburg 🇷🇺
1224. 🇸🇰 SVK 6-2 ITA 🇮🇹 – 05/02/2000 – WC – Saint Petersburg 🇷🇺
1223. 🇸🇰 SVK 2-0 AUT 🇦🇹 – 04/30/2000 – WC – Saint Petersburg 🇷🇺
1222. 🇸🇰 SVK 2-2 SWE 🇸🇪 – 04/25/2000 – EX – Västerås 🇸🇪
1221. 🇸🇰 SVK 4-1 BLR 🇧🇾 – 04/19/2000 – EX – Spišská Nová Ves 🇸🇰

🇧🇾 BELARUS – 1st reign, 1 win
1220. 🇧🇾 BLR 4-3 SVK 🇸🇰 – 04/18/2000 – EX – Spišská Nová Ves 🇸🇰

🇸🇰 SLOVAKIA – 2nd reign, 1 win
1219. 🇸🇰 SVK 2-1 CZE 🇨🇿 – 04/12/2000 – EX – Ostrava 🇨🇿

🇨🇿 CZECHIA – 47th reign, 2 wins + 1 tie
1218. 🇨🇿 CZE 5-5 SVK 🇸🇰 – 04/11/2000 – EX – Žilina 🇸🇰
1217. 🇨🇿 CZE 3-1 SWE 🇸🇪 – 02/12/2000 – SHG – Stockholm 🇸🇪
1216. 🇨🇿 CZE 1-0 CAN 🇨🇦 – 02/11/2000 – SHG – Stockholm 🇸🇪

🇨🇦 CANADA – 44th reign, 1 win
1215. 🇨🇦 CAN 3-2 FIN 🇫🇮 – 02/10/2000 – SHG – Stockholm 🇸🇪

🇫🇮 FINLAND – 24th reign, 1 win
1214. 🇫🇮 FIN 3-1 CZE 🇨🇿 – 02/09/2000 – SHG – Stockholm 🇸🇪

🇨🇿 CZECHIA – 46th reign, 1 win
1213. 🇨🇿 CZE 6-2 RUS 🇷🇺 – 02/08/2000 – SHG – Stockholm 🇸🇪

🇷🇺 RUSSIA – 46th reign, 2 wins + 1 tie
1212. 🇷🇺 RUS 7-5 SWE 🇸🇪 – 12/21/1999 – BC – Moscow 🇷🇺
1211. 🇷🇺 RUS 1-1 CZE 🇨🇿 – 12/19/1999 – BC – Moscow 🇷🇺
1210. 🇷🇺 RUS 3-2 FIN 🇫🇮 – 12/18/1999 – BC – Moscow 🇷🇺

🇫🇮 FINLAND – 23rd reign, 4 wins
1209. 🇫🇮 FIN 3-1 CZE 🇨🇿 – 12/17/1999 – BC – Moscow 🇷🇺
1208. 🇫🇮 FIN 3-2 SWE 🇸🇪 – 11/14/1999 – KT – Espoo 🇫🇮
1207. 🇫🇮 FIN 2-1 RUS 🇷🇺 – 11/13/1999 – KT – Espoo 🇫🇮
1206. 🇫🇮 FIN 3-2 CZE 🇨🇿 – 11/11/1999 – KT – Espoo 🇫🇮

🇨🇿 CZECHIA – 45th reign, 7 wins
1205. 🇨🇿 CZE 3-0 FIN 🇫🇮 – 09/05/1999 – CPC – Zlín 🇨🇿
1204. 🇨🇿 CZE 3-1 RUS 🇷🇺 – 09/04/1999 – CPC – Zlín 🇨🇿
1203. 🇨🇿 CZE 3-2 SWE 🇸🇪 – 09/02/1999 – CPC – Zlín 🇨🇿
1202. 🇨🇿 CZE 6-3 SVK 🇸🇰 – 08/31/1999 – EX – Znojmo 🇨🇿
1201. 🇨🇿 CZE 1-4 (1-0 OT) FIN 🇫🇮 – 05/16/1999 – WC – Lillehammer 🇳🇴 🏅
The 1999 World Championship medal rounds were each played as a two-game series, with any tied series resulting in a 20 minute overtime and shootout immediately following the second game to crown a winner. Despite Finland winning Game 2 of the Gold Medal final by a 4-1 score, Czechia technically is the winner for scoring and winning in overtime.

1200. 🇨🇿 CZE 3-1 FIN 🇫🇮 – 05/15/1999 – WC – Lillehammer 🇳🇴
1199. 🇨🇿 CZE 6-4 (1-0 SO) CAN 🇨🇦 – 05/13/1999 – WC – Lillehammer 🇳🇴

🇨🇦 CANADA – 43rd reign, 1 win
1198. 🇨🇦 CAN 2-1 CZE 🇨🇿 – 05/12/1999 – WC – Lillehammer 🇳🇴

🇨🇿 CZECHIA – 44th reign, 1 win
1197. 🇨🇿 CZE 2-0 SWE 🇸🇪 – 05/10/1999 – WC – Oslo 🇳🇴

🇸🇪 SWEDEN – 50th reign, 4 wins
1196. 🇸🇪 SWE 4-1 RUS 🇷🇺 – 05/08/1999 – WC – Oslo 🇳🇴
1195. 🇸🇪 SWE 2-1 SVK 🇸🇰 – 05/07/1999 – WC – Oslo 🇳🇴
1194. 🇸🇪 SWE 4-3 LAT 🇱🇻 – 05/05/1999 – WC – Oslo 🇳🇴
1193. 🇸🇪 SWE 6-1 SUI 🇨🇭 – 05/03/1999 – WC – Oslo 🇳🇴

🇨🇭 SWITZERLAND – 5th reign, 5 wins + 1 tie
1192. 🇨🇭 SUI 5-3 LAT 🇱🇻 – 05/01/1999 – WC – Oslo 🇳🇴
1191. 🇨🇭 SUI 5-1 ITA 🇮🇹 – 04/27/1999 – EX – Bellinzona 🇨🇭
1190. 🇨🇭 SUI 5-2 NOR 🇳🇴 – 04/24/1999 – EX – La Chaux-de-Fonds 🇨🇭
1189. 🇨🇭 SUI 5-3 NOR 🇳🇴 – 04/23/1999 – EX – Geneva 🇨🇭
1188. 🇨🇭 SUI 3-3 FIN 🇫🇮 – 04/18/1999 – EX – Herisau 🇨🇭
1187. 🇨🇭 SUI 4-2 FIN 🇫🇮 – 04/17/1999 – EX – Zürich 🇨🇭

🇫🇮 FINLAND – 22nd reign, 3 wins
1186. 🇫🇮 FIN 6-0 NOR 🇳🇴 – 04/11/1999 – EX – Savonlinna 🇫🇮
1185. 🇫🇮 FIN 5-2 NOR 🇳🇴 – 04/10/1999 – EX – Joensuu 🇫🇮
1184. 🇫🇮 FIN 5-4 SWE 🇸🇪 – 02/14/1999 – SHG – Stockholm 🇸🇪

🇸🇪 SWEDEN – 49th reign, 4 wins + 1 tie
1183. 🇸🇪 SWE 1-1 CZE 🇨🇿 – 02/12/1999 – SHG – Stockholm 🇸🇪
1182. 🇸🇪 SWE 5-0 RUS 🇷🇺 – 02/10/1999 – SHG – Stockholm 🇸🇪
1181. 🇸🇪 SWE 4-1 CAN 🇨🇦 – 02/09/1999 – SHG – Stockholm 🇸🇪
1180. 🇸🇪 SWE 5-3 RUS 🇷🇺 – 12/19/1998 – BC – Moscow 🇷🇺
1179. 🇸🇪 SWE 2-1 CZE 🇨🇿 – 12/18/1998 – BC – Moscow 🇷🇺

🇨🇿 CZECHIA – 43rd reign, 1 win
1178. 🇨🇿 CZE 5-3 RUS 🇷🇺 – 12/17/1998 – BC – Moscow 🇷🇺

🇷🇺 RUSSIA – 45th reign, 2 wins + 1 tie
1177. 🇷🇺 RUS 3-1 CAN 🇨🇦 – 12/15/1998 – BC – Moscow 🇷🇺
1176. 🇷🇺 RUS 2-2 CZE 🇨🇿 – 11/07/1998 – KT – Helsinki 🇫🇮
1175. 🇷🇺 RUS 4-1 SWE 🇸🇪 – 11/06/1998 – KT – Helsinki 🇫🇮

🇸🇪 SWEDEN – 48th reign, 13 wins + 4 ties
1174. 🇸🇪 SWE 2-2 CZE 🇨🇿 – 11/05/1998 – KT – Helsinki 🇫🇮
1173. 🇸🇪 SWE 3-2 FIN 🇫🇮 – 11/03/1998 – EX – Lahti 🇫🇮
1172. 🇸🇪 SWE 0-0 CZE 🇨🇿 – 09/06/1998 – CPC – Zlín 🇨🇿
1171. 🇸🇪 SWE 4-1 FIN 🇫🇮 – 09/04/1998 – CPC – Zlín 🇨🇿
1170. 🇸🇪 SWE 3-0 RUS 🇷🇺 – 09/03/1998 – CPC – Zlín 🇨🇿
1169. 🇸🇪 SWE 0-0 FIN 🇫🇮 – 05/17/1998 – WC – Zürich 🇨🇭 🏅
1168. 🇸🇪 SWE 1-0 FIN 🇫🇮 – 05/16/1998 – WC – Zürich 🇨🇭
1167. 🇸🇪 SWE 7-2 SUI 🇨🇭 – 05/14/1998 – WC – Zürich 🇨🇭
1166. 🇸🇪 SWE 4-1 SUI 🇨🇭 – 05/12/1998 – WC – Zürich 🇨🇭
1165. 🇸🇪 SWE 7-1 CAN 🇨🇦 – 05/10/1998 – WC – Zürich 🇨🇭
1164. 🇸🇪 SWE 2-1 BLR 🇧🇾 – 05/09/1998 – WC – Zürich 🇨🇭
1163. 🇸🇪 SWE 1-0 FIN 🇫🇮 – 05/07/1998 – WC – Zürich 🇨🇭
1162. 🇸🇪 SWE 6-1 USA 🇺🇸 – 05/06/1998 – WC – Zürich 🇨🇭
1161. 🇸🇪 SWE 4-2 SUI 🇨🇭 – 05/04/1998 – WC – Zürich 🇨🇭
1160. 🇸🇪 SWE 6-1 FRA 🇫🇷 – 05/02/1998 – WC – Zürich 🇨🇭
1159. 🇸🇪 SWE 2-2 FIN 🇫🇮 – 04/26/1998 – SHG – Stockholm 🇸🇪
1158. 🇸🇪 SWE 4-2 CZE 🇨🇿 – 04/24/1998 – SHG – Stockholm 🇸🇪

🇨🇿 CZECHIA – 42nd reign, 3 wins
1157. 🇨🇿 CZE 4-3 RUS 🇷🇺 – 04/23/1998 – SHG – Stockholm 🇸🇪
1156. 🇨🇿 CZE 3-2 CAN 🇨🇦 – 04/22/1998 – SHG – Stockholm 🇸🇪
1155. 🇨🇿 CZE 3-2 FIN 🇫🇮 – 04/21/1998 – SHG – Stockholm 🇸🇪

🇫🇮 FINLAND – 21st reign, 2 wins
1154. 🇫🇮 FIN 6-3 CZE 🇨🇿 – 04/19/1998 – EX – Helsinki 🇫🇮
1153. 🇫🇮 FIN 3-2 CZE 🇨🇿 – 04/17/1998 – EX – Helsinki 🇫🇮

🇨🇿 CZECHIA – 41st reign, 1 win
1152. 🇨🇿 CZE 1-0 RUS 🇷🇺 – 02/22/1998 – OG – Nagano 🇯🇵 🏅

🇷🇺 RUSSIA – 44th reign, 5 wins
1151. 🇷🇺 RUS 7-4 FIN 🇫🇮 – 02/20/1998 – OG – Nagano 🇯🇵
1150. 🇷🇺 RUS 4-1 BLR 🇧🇾 – 02/18/1998 – OG – Nagano 🇯🇵
1149. 🇷🇺 RUS 2-1 CZE 🇨🇿 – 02/16/1998 – OG – Nagano 🇯🇵
1148. 🇷🇺 RUS 4-3 FIN 🇫🇮 – 02/15/1998 – OG –- Nagano 🇯🇵
1147. 🇷🇺 RUS 9-2 KAZ 🇰🇿 – 02/13/1998 – OG – Nagano 🇯🇵

🇰🇿 KAZAKHSTAN – 1st reign, 3 wins + 1 tie
1146. 🇰🇿 KAZ 4-3 SVK 🇸🇰 – 02/10/1998 – OG – Nagano 🇯🇵
1145. 🇰🇿 KAZ 5-5 AUT 🇦🇹 – 02/08/1998 – OG – Nagano 🇯🇵
1144. 🇰🇿 KAZ 5-3 ITA 🇮🇹 – 02/07/1998 – OG – Nagano 🇯🇵
1143. 🇰🇿 KAZ 4-2 NOR 🇳🇴 – 11/09/1997 – WCQ – Klagenfurt 🇦🇹

🇳🇴 NORWAY – 2nd reign, 3 wins + 2 ties
1142. 🇳🇴 NOR 3-0 POL 🇵🇱 – 11/08/1997 – WCQ – Klagenfurt 🇦🇹
1141. 🇳🇴 NOR 3-1 AUT 🇦🇹 – 11/06/1997 – WCQ – Klagenfurt 🇦🇹
1140. 🇳🇴 NOR 2-2 JPN 🇯🇵 – 11/04/1997 – EX – Oslo 🇳🇴
1139. 🇳🇴 NOR 3-3 JPN 🇯🇵 – 11/03/1997 – EX – Hamar 🇳🇴
1138. 🇳🇴 NOR 5-3 JPN 🇯🇵 – 11/01/1997 – EX – Sarpsborg 🇳🇴

🇯🇵 JAPAN – 1st reign, 1 win
1137. 🇯🇵 JPN 5-3 CAN 🇨🇦 – 10/11/1997 – EX – Drumheller 🇨🇦

🇨🇦 CANADA – 42nd reign, 8 wins + 1 tie
1136. 🇨🇦 CAN 3-3 JPN 🇯🇵 – 10/10/1997 – EX – Olds 🇨🇦
1135. 🇨🇦 CAN 4-1 JPN 🇯🇵 – 10/07/1997 – EX – Calgary 🇨🇦
1134. 🇨🇦 CAN 5-2 NOR 🇳🇴 – 10/02/1997 – EX – Kenora 🇨🇦
1133. 🇨🇦 CAN 5-0 NOR 🇳🇴 – 09/30/1997 – EX – Flin Flon 🇨🇦
1132. 🇨🇦 CAN 4-3 NOR 🇳🇴 – 09/29/1997 – EX – The Pas 🇨🇦
1131. 🇨🇦 CAN 5-1 NOR 🇳🇴 – 09/28/1997 – EX – Brandon 🇨🇦
1130. 🇨🇦 CAN 5-2 NOR 🇳🇴 – 09/26/1997 – EX – Winnipeg 🇨🇦
1129. 🇨🇦 CAN 2-1 SWE 🇸🇪 – 05/14/1997 – WC – Helsinki 🇫🇮 🏅
1128. 🇨🇦 CAN 3-1 SWE 🇸🇪 – 05/13/1997 – WC – Helsinki 🇫🇮

🇸🇪 SWEDEN – 47th reign, 1 win
1127. 🇸🇪 SWE 3-2 CAN 🇨🇦 – 05/11/1997 – WC – Helsinki 🇫🇮

🇨🇦 CANADA – 41st reign, 1 win
1126. 🇨🇦 CAN 2-1 RUS 🇷🇺 – 05/09/1997 – WC – Helsinki 🇫🇮

🇷🇺 RUSSIA – 43rd reign, 1 win + 1 tie
1125. 🇷🇺 RUS 1-1 USA 🇺🇸 – 05/06/1997 – WC – Helsinki 🇫🇮
1124. 🇷🇺 RUS 4-1 SWE 🇸🇪 – 05/05/1997 – WC – Helsinki 🇫🇮

🇸🇪 SWEDEN – 46th reign, 3 wins + 1 tie
1123. 🇸🇪 SWE 3-1 USA 🇺🇸 – 05/03/1997 – WC – Turku 🇫🇮
1122. 🇸🇪 SWE 1-1 LAT 🇱🇻 – 05/02/1997 – WC – Turku 🇫🇮
1121. 🇸🇪 SWE 4-1 NOR 🇳🇴 – 04/29/1997 – WC – Turku 🇫🇮
1120. 🇸🇪 SWE 7-2 CAN 🇨🇦 – 04/27/1997 – WC – Turku 🇫🇮

🇨🇦 CANADA – 40th reign, 3 wins
1119. 🇨🇦 CAN 7-0 NOR 🇳🇴 – 04/26/1997 – WC – Turku 🇫🇮
1118. 🇨🇦 CAN 5-1 USA 🇺🇸 – 04/20/1997 – EX – Winnipeg 🇨🇦
1117. 🇨🇦 CAN 4-2 USA 🇺🇸 – 04/19/1997 – EX – Winnipeg 🇨🇦

🇺🇸 UNITED STATES – 20th reign, 2 wins
1116. 🇺🇸 USA 5-2 CAN 🇨🇦 – 09/14/1996 – WCH – Montréal 🇨🇦 🏅
1115. 🇺🇸 USA 5-2 CAN 🇨🇦 – 09/12/1996 – WCH – Montréal 🇨🇦

🇨🇦 CANADA – 39th reign, 1 win
1114. 🇨🇦 CAN 4-3 USA 🇺🇸 (OT) – 09/10/1996 – WCH – Philadelphia 🇺🇸

🇺🇸 UNITED STATES – 19th reign, 4 wins
1113. 🇺🇸 USA 5-2 RUS 🇷🇺 – 09/08/1996 – WCH – Ottawa 🇨🇦
1112. 🇺🇸 USA 9-3 SVK 🇸🇰 – 09/03/1996 – WCH – New York 🇺🇸
1111. 🇺🇸 USA 5-2 RUS 🇷🇺 – 09/02/1996 – WCH – New York 🇺🇸
1110. 🇺🇸 USA 5-3 CAN 🇨🇦 – 08/31/1996 – WCH – Philadelphia 🇺🇸

🇨🇦 CANADA – 38th reign, 1 win
1109. 🇨🇦 CAN 5-3 RUS 🇷🇺 – 08/29/1996 – WCH – Vancouver 🇨🇦

🇷🇺 RUSSIA – 42nd reign, 3 wins + 1 tie
1108. 🇷🇺 RUS 4-4 CAN 🇨🇦 – 08/25/1996 – EX – Calgary 🇨🇦
1107. 🇷🇺 RUS 6-4 USA 🇺🇸 – 08/23/1996 – EX – Detroit 🇺🇸
1106. 🇷🇺 RUS 4-2 GER 🇩🇪 – 08/20/1996 – EX – Landshut 🇩🇪
1105. 🇷🇺 RUS 3-2 SWE 🇸🇪 – 08/18/1996 – EX – Stockholm 🇸🇪

🇸🇪 SWEDEN – 45th reign, 1 win
1104. 🇸🇪 SWE 4-2 CZE 🇨🇿 – 08/16/1996 – EX – Zlín 🇨🇿

🇨🇿 CZECHIA – 40th reign, 6 wins + 1 tie
1103. 🇨🇿 CZE 4-2 CAN 🇨🇦 – 05/05/1996 – WC – Vienna 🇦🇹 🏅
1102. 🇨🇿 CZE 5-0 USA 🇺🇸 – 05/03/1996 – WC – Vienna 🇦🇹
1101. 🇨🇿 CZE 6-1 GER 🇩🇪 – 05/01/1996 – WC – Vienna 🇦🇹
1100. 🇨🇿 CZE 9-5 ITA 🇮🇹 – 04/28/1996 – WC – Vienna 🇦🇹
1099. 🇨🇿 CZE 9-2 FRA 🇫🇷 – 04/27/1996 – WC – Vienna 🇦🇹
1098. 🇨🇿 CZE 2-2 NOR 🇳🇴 – 04/24/1996 – WC – Vienna 🇦🇹
1097. 🇨🇿 CZE 4-2 FIN 🇫🇮 – 04/23/1996 – WC – Vienna 🇦🇹

🇫🇮 FINLAND – 20th reign, 1 win + 2 ties
1096. 🇫🇮 FIN 1-1 NOR 🇳🇴 – 04/21/1996 – WC – Vienna 🇦🇹
1095. 🇫🇮 FIN 3-3 SWE 🇸🇪 – 04/17/1996 – EX – Stockholm 🇸🇪
1094. 🇫🇮 FIN 4-1 SWE 🇸🇪 – 04/16/1996 – EX – Gothenburg 🇸🇪

🇸🇪 SWEDEN – 44th reign, 2 wins + 1 tie
1093. 🇸🇪 SWE 7-3 CZE 🇨🇿 – 04/11/1996 – EX – Luleå 🇸🇪
1092. 🇸🇪 SWE 3-3 CZE 🇨🇿 – 04/10/1996 – EX – Stockholm 🇸🇪
1091. 🇸🇪 SWE 7-1 NOR 🇳🇴 – 04/02/1996 – EX – Gjøvik 🇳🇴

🇳🇴 NORWAY – 1st reign, 2 wins + 1 tie
1090. 🇳🇴 NOR 3-3 SWE 🇸🇪 – 04/01/1996 – EX – Hamar 🇳🇴
1089. 🇳🇴 NOR 4-3 FRA 🇫🇷 – 02/07/1996 – RIC – Oslo 🇳🇴
1088. 🇳🇴 NOR 3-1 GER 🇩🇪 – 02/05/1996 – RIC – Oslo 🇳🇴

🇩🇪 GERMANY – 9th reign, 2 wins + 1 tie
1087. 🇩🇪 GER 4-4 ITA 🇮🇹 – 12/21/1995 – EX – Memmingen 🇩🇪
1086. 🇩🇪 GER 5-1 ITA 🇮🇹 – 12/20/1995 – EX – Landsberg 🇩🇪
1085. 🇩🇪 GER 2-1 CZE 🇨🇿 (SO) – 11/05/1995 – DC – Stuttgart 🇩🇪

🇨🇿 CZECHIA – 39th reign, 1 win
1084. 🇨🇿 CZE 3-0 SWE 🇸🇪 – 11/04/1995 – DC – Stuttgart 🇩🇪

🇸🇪 SWEDEN – 43rd reign, 1 win
1083. 🇸🇪 SWE 5-4 FIN 🇫🇮 – 11/02/1995 – DC – Stuttgart 🇩🇪

🇫🇮 FINLAND – 19th reign, 3 wins
1082. 🇫🇮 FIN 5-4 GER 🇩🇪 – 09/03/1995 – EX – Chemnitz 🇩🇪
1081. 🇫🇮 FIN 5-1 GER 🇩🇪 – 09/02/1995 – EX – Berlin 🇩🇪
1080. 🇫🇮 FIN 4-1 SWE 🇸🇪 – 05/07/1995 – WC – Stockholm 🇸🇪 🏅

🇸🇪 SWEDEN – 42nd reign, 1 win
1079. 🇸🇪 SWE 3-2 CAN 🇨🇦 (OT) – 05/05/1995 – WC – Stockholm 🇸🇪

🇨🇦 CANADA – 37th reign, 1 win
1078. 🇨🇦 CAN 4-1 USA 🇺🇸 – 05/03/1995 – WC – Stockholm 🇸🇪

🇺🇸 UNITED STATES – 18th reign, 1 win + 2 ties
1077. 🇺🇸 USA 4-4 FIN 🇫🇮 – 04/30/1995 – WC – Stockholm 🇸🇪
1076. 🇺🇸 USA 2-2 SWE 🇸🇪 – 04/28/1995 – WC – Stockholm 🇸🇪
1075. 🇺🇸 USA 4-2 CZE 🇨🇿 – 04/27/1995 – WC – Stockholm 🇸🇪

🇨🇿 CZECHIA – 38th reign, 3 wins
1074. 🇨🇿 CZE 5-2 AUT 🇦🇹 – 04/26/1995 – WC – Stockholm 🇸🇪
1073. 🇨🇿 CZE 3-0 FIN 🇫🇮 – 04/23/1995 – WC – Stockholm 🇸🇪
1072. 🇨🇿 CZE 3-2 SWE 🇸🇪 – 04/19/1995 – EX – Prague 🇨🇿

🇸🇪 SWEDEN – 41st reign, 6 wins
1071. 🇸🇪 SWE 3-2 CZE 🇨🇿 – 04/18/1995 – EX – Litvínov 🇨🇿
1070. 🇸🇪 SWE 4-2 FIN 🇫🇮 – 04/12/1995 – EX – Skellefteå 🇸🇪
1069. 🇸🇪 SWE 4-2 FIN 🇫🇮 – 04/11/1995 – EX – Stockholm 🇸🇪
1068. 🇸🇪 SWE 6-2 NOR 🇳🇴 – 04/05/1995 – EX – Sarpsborg 🇳🇴
1067. 🇸🇪 SWE 1-0 NOR 🇳🇴 – 04/04/1995 – EX – Gjøvik 🇳🇴
1066. 🇸🇪 SWE 5-0 RUS 🇷🇺 – 02/12/1995 – SHG – Stockholm 🇸🇪

🇷🇺 RUSSIA – 41st reign, 4 wins + 2 ties
1065. 🇷🇺 RUS 6-0 CAN 🇨🇦 – 02/10/1995 – SHG – Stockholm 🇸🇪
1064. 🇷🇺 RUS 4-4 CZE 🇨🇿 – 02/09/1995 – SHG – Stockholm 🇸🇪
1063. 🇷🇺 RUS 1-0 CZE 🇨🇿 – 12/20/1994 – IT – Moscow 🇷🇺
1062. 🇷🇺 RUS 8-1 ITA 🇮🇹 – 12/18/1994 – IT – Moscow 🇷🇺
1061. 🇷🇺 RUS 2-2 FIN 🇫🇮 – 12/17/1994 – IT – Moscow 🇷🇺
1060. 🇷🇺 RUS 7-2 FRA 🇫🇷 – 12/16/1994 – IT – Moscow 🇷🇺

🇫🇷 FRANCE7th reign, 2 wins
1059. 🇫🇷 FRA 8-2 DEN 🇩🇰 – 11/02/1994 – EX – Copenhagen 🇩🇰
1058. 🇫🇷 FRA 4-3 CAN 🇨🇦 – 10/19/1994 – EX – Wilcox 🇨🇦

🇨🇦 CANADA – 36th reign, 2 wins
1057. 🇨🇦 CAN 5-3 FRA 🇫🇷 – 10/18/1994 – EX – Swan River 🇨🇦
1056. 🇨🇦 CAN 6-2 FRA 🇫🇷 – 10/16/1994 – EX – Melville 🇨🇦

🇫🇷 FRANCE – 6th reign, 2 wins
1055. 🇫🇷 FRA 3-2 CAN 🇨🇦 (SO) – 10/15/1994 – EX – Tisdale 🇨🇦
1054. 🇫🇷 FRA 5-1 CAN 🇨🇦 – 10/13/1994 – EX – Calgary 🇨🇦

🇨🇦 CANADA – 35th reign, 2 wins
1053. 🇨🇦 CAN 2-1 FIN 🇫🇮 (SO) – 05/08/1994 – WC – Assago 🇮🇹 🏅
1052. 🇨🇦 CAN 6-0 SWE 🇸🇪 – 05/07/1994 – WC – Assago 🇮🇹

🇸🇪 SWEDEN – 40th reign, 3 wins
1051. 🇸🇪 SWE 7-2 ITA 🇮🇹 – 05/05/1994 – WC – Assago 🇮🇹
1050. 🇸🇪 SWE 4-1 CZE 🇨🇿 – 05/02/1994 – WC – Canazei 🇮🇹
1049. 🇸🇪 SWE 6-2 USA 🇺🇸 – 04/30/1994 – WC – Canazei 🇮🇹

🇺🇸 UNITED STATES – 17th reign, 1 win
1048. 🇺🇸 USA 5-3 CZE 🇨🇿 – 04/28/1994 – WC – Canazei 🇮🇹

🇨🇿 CZECHIA – 37th reign, 2 wins + 1 tie
1047. 🇨🇿 CZE 5-2 FRA 🇫🇷 – 04/26/1994 – WC – Canazei 🇮🇹
1046. 🇨🇿 CZE 4-4 FIN 🇫🇮 – 04/25/1994 – WC – Canazei 🇮🇹
1045. 🇨🇿 CZE 4-3 SWE 🇸🇪 – 04/22/1994 – EX – České Budějovice 🇨🇿

🇸🇪 SWEDEN – 39th reign, 6 wins + 1 tie
1044. 🇸🇪 SWE 3-1 CZE 🇨🇿 – 04/21/1994 – EX – Mariánské Lázně 🇨🇿
1043. 🇸🇪 SWE 8-2 FIN 🇫🇮 – 04/19/1994 – EX – Västerås 🇸🇪
1042. 🇸🇪 SWE 4-1 FIN 🇫🇮 – 04/17/1994 – EX – Stockholm 🇸🇪
1041. 🇸🇪 SWE 8-2 NOR 🇳🇴 – 04/12/1994 – EX – Oslo 🇳🇴
1040. 🇸🇪 SWE 1-1 NOR 🇳🇴 – 04/11/1994 – EX – Gjøvik 🇳🇴
1039. 🇸🇪 SWE 3-2 CAN 🇨🇦 (SO) – 02/27/1994 – OG – Lillehammer 🇳🇴 🏅
1038. 🇸🇪 SWE 4-3 RUS 🇷🇺 – 02/25/1994 – OG – Lillehammer 🇳🇴

🇷🇺 RUSSIA – 40th reign, 1 win
1037. 🇷🇺 RUS 3-2 SVK 🇸🇰 (OT) – 02/23/1994 – OG – Lillehammer 🇳🇴

🇸🇰 SLOVAKIA – 1st reign, 13 wins + 5 ties
1036. 🇸🇰 SVK 6-2 FRA 🇫🇷 – 02/21/1994 – OG – Gjøvik 🇳🇴
1035. 🇸🇰 SVK 3-1 CAN 🇨🇦 – 02/19/1994 – OG – Lillehammer 🇳🇴
1034. 🇸🇰 SVK 10-4 ITA 🇮🇹 – 02/17/1994 – OG – Lillehammer 🇳🇴
1033. 🇸🇰 SVK 3-3 USA 🇺🇸 – 02/15/1994 – OG – Gjøvik 🇳🇴
1032. 🇸🇰 SVK 4-4 SWE 🇸🇪 – 02/13/1994 – OG – Lillehammer 🇳🇴
1031. 🇸🇰 SVK 9-0 DEN 🇩🇰 – 02/06/1994 – EX – Senica 🇸🇰
1030. 🇸🇰 SVK 11-1 DEN 🇩🇰 – 02/05/1994 – EX – Bratislava 🇸🇰
1029. 🇸🇰 SVK 5-5 USA 🇺🇸 – 11/21/1993 – THC – Lillehammer 🇳🇴
1028. 🇸🇰 SVK 5-3 RUS 🇷🇺 – 11/20/1993 – THC – Lillehammer 🇳🇴
1027. 🇸🇰 SVK 4-0 CAN 🇨🇦 – 11/18/1993 – THC – Lillehammer 🇳🇴
1026. 🇸🇰 SVK 3-3 NOR 🇳🇴 – 11/17/1993 – THC – Lillehammer 🇳🇴
1025. 🇸🇰 SVK 3-1 FRA 🇫🇷 – 11/16/1993 – THC – Lillehammer 🇳🇴
1024. 🇸🇰 SVK 7-1 GBR 🇬🇧 – 09/04/1993 – OQ – Sheffield 🇬🇧
1023. 🇸🇰 SVK 7-1 LAT 🇱🇻 – 09/02/1993 – OQ – Sheffield 🇬🇧
1022. 🇸🇰 SVK 4-4 POL 🇵🇱 – 09/01/1993 – OQ – Sheffield 🇬🇧
1021. 🇸🇰 SVK 7-2 JPN 🇯🇵 – 08/29/1993 – OQ – Sheffield 🇬🇧
1020. 🇸🇰 SVK 8-1 FRA 🇫🇷 – 08/23/1993 – EX – Trenčín 🇸🇰
1019. 🇸🇰 SVK 14-0 FRA 🇫🇷 – 08/22/1993 – EX – Bratislava 🇸🇰

🇫🇷 FRANCE – 5th reign, 1 win
1018. 🇫🇷 FRA 3-1 SUI 🇨🇭 – 04/29/1993 – WC – Munich 🇩🇪

🇨🇭 SWITZERLAND – 4th reign, 1 win
1017. 🇨🇭 SUI 6-4 SWE 🇸🇪 – 04/25/1993 – WC – Munich 🇩🇪

🇸🇪 SWEDEN – 38th reign, 1 win
1016. 🇸🇪 SWE 5-2 RUS 🇷🇺 – 04/24/1993 – WC – Munich 🇩🇪

🇷🇺 RUSSIA – 39th reign, 3 wins + 1 tie
1015. 🇷🇺 RUS 6-0 SUI 🇨🇭 – 04/22/1993 – WC – Munich 🇩🇪
1014. 🇷🇺 RUS 4-2 AUT 🇦🇹 – 04/19/1993 – WC – Munich 🇩🇪
1013. 🇷🇺 RUS 2-2 ITA 🇮🇹 – 04/18/1993 – WC – Munich 🇩🇪
1012. 🇷🇺 RUS 2-0 GER 🇩🇪 – 04/11/1993 – EX – Munich 🇩🇪

🇩🇪 GERMANY – 8th reign, 1 win
1011. 🇩🇪 GER 6-4 RUS 🇷🇺 – 04/10/1993 – EX – Kaufbeuren 🇩🇪

🇷🇺 RUSSIA – 38th reign, 2 wins + 1 tie
1010. 🇷🇺 RUS 3-0 AUT 🇦🇹 – 04/07/1993 – EX – Zell am See 🇦🇹
1009. 🇷🇺 RUS 2-2 SUI 🇨🇭 – 04/06/1993 – EX – Rapperswil 🇨🇭
1008. 🇷🇺 RUS 4-2 SWE 🇸🇪 – 02/14/1993 – SHG – Stockholm 🇸🇪

🇸🇪 SWEDEN – 37th reign, 1 win
1007. 🇸🇪 SWE 3-2 CZE 🇨🇿 – 02/12/1993 – SHG – Stockholm 🇸🇪

🇨🇿 CZECHIA – 36th reign, 1 win
1006. 🇨🇿 CZE 6-1 RUS 🇷🇺 – 02/11/1993 – SHG – Stockholm 🇸🇪

COUNTRIES LEGEND: 🇦🇹 AUT = Austria. 🇧🇾 BLR = Belarus. 🇨🇦 CAN = Canada. 🇨🇿 CZE = Czechia. 🇩🇰 DEN = Denmark. 🇫🇮 FIN = Finland. 🇫🇷 FRA = France. 🇬🇧 GBR = Great Britain. 🇩🇪 GER = Germany. 🇭🇺 HUN = Hungary. 🇮🇹 ITA = Italy. 🇯🇵 JPN = Japan. 🇰🇿 KAZ = Kazakhstan. 🇱🇻 LAT = Latvia. 🇳🇴 NOR = Norway. 🇵🇱 POL = Poland. 🇷🇺 RUS = Russia. 🇸🇮 SLO = Slovenia. 🇨🇭 SUI = Switzerland. 🇸🇰 SVK = Slovakia. 🇸🇪 SWE = Sweden. 🇺🇦 UKR = Ukraine. 🇺🇸 USA = United States.

EVENTS LEGEND:🏅 = Medal / Championship game. ARC = Arosa Challenge. BC = Baltika Cup. CC = Canada Cup. COC = Channel One Cup. CHG = Czech Hockey Games. CPC = Česká Pojišťovna Cup. DC = Deutschland Cup. EHT = Euro Hockey Tour. EX = Exhibition game. JC = Japan Cup. KT = Karjala Tournament. LC = Lotto Cup. LGG = LG Hockey Games. OG = Olympic Games. OQ = Olympic Qualifier. (OT) = Overtime victory. PC = Polessye Cup. RC = Rosno Cup. RIC = Rimi Cup. SC = Skoda Cup. SHG = Sweden Hockey Games. (SO) = Shootout victory. SWC = Swiss Challenge. THC = Tele Hockey Cup. WC = World Championship. WCH = World Cup Of Hockey. WCQ = World Championship Qualifier.

Advertisements